createdAt,value
2022-12-14T00:01:48.988Z,14.83
2022-12-14T00:04:19.690Z,17.03
2022-12-14T00:06:48.434Z,16.10
2022-12-14T00:09:17.166Z,18.57
2022-12-14T00:11:46.041Z,19.90
2022-12-14T00:14:14.857Z,19.13
2022-12-14T00:16:43.492Z,20.83
2022-12-14T00:19:12.527Z,15.93
2022-12-14T00:21:42.711Z,16.63
2022-12-14T00:24:12.396Z,16.83
2022-12-14T00:26:41.083Z,17.80
2022-12-14T00:29:09.734Z,18.47
2022-12-14T00:31:38.181Z,19.07
2022-12-14T00:34:07.275Z,21.00
2022-12-14T00:36:37.792Z,15.77
2022-12-14T00:39:08.262Z,17.47
2022-12-14T00:41:37.418Z,19.90
2022-12-14T00:44:06.443Z,20.63
2022-12-14T00:46:35.150Z,16.00
2022-12-14T00:49:04.081Z,18.93
2022-12-14T00:51:33.096Z,16.70
2022-12-14T00:54:01.884Z,19.90
2022-12-14T00:56:31.867Z,15.97
2022-12-14T00:59:00.735Z,19.77
2022-12-14T01:01:30.708Z,23.90
2022-12-14T01:04:17.312Z,17.60
2022-12-14T01:06:46.489Z,18.67
2022-12-14T01:09:15.698Z,20.97
2022-12-14T01:11:46.039Z,17.57
2022-12-14T01:14:17.238Z,16.67
2022-12-14T01:16:46.635Z,16.90
2022-12-14T01:19:16.206Z,14.93
2022-12-14T01:21:45.165Z,20.20
2022-12-14T01:24:14.155Z,17.17
2022-12-14T01:26:42.871Z,17.43
2022-12-14T01:29:14.143Z,19.33
2022-12-14T01:31:43.595Z,18.17
2022-12-14T01:34:17.610Z,19.43
2022-12-14T01:36:46.703Z,18.63
2022-12-14T01:39:17.467Z,15.23
2022-12-14T01:41:49.712Z,14.40
2022-12-14T01:44:51.897Z,17.67
2022-12-14T01:47:27.817Z,16.07
2022-12-14T01:50:03.051Z,18.70
2022-12-14T01:52:38.505Z,17.33
2022-12-14T01:55:12.311Z,19.57
2022-12-14T01:57:44.555Z,16.30
2022-12-14T02:00:14.610Z,21.67
2022-12-14T02:02:50.419Z,21.50
2022-12-14T02:05:22.038Z,17.83
2022-12-14T02:08:48.037Z,17.70
2022-12-14T02:11:22.024Z,17.57
2022-12-14T02:13:51.069Z,18.77
2022-12-14T02:16:20.269Z,17.30
2022-12-14T02:18:51.103Z,16.80
2022-12-14T02:21:25.354Z,17.33
2022-12-14T02:24:35.744Z,15.90
2022-12-14T02:27:33.301Z,19.07
2022-12-14T02:30:42.267Z,17.73
2022-12-14T02:33:27.539Z,14.97
2022-12-14T02:36:04.024Z,21.67
2022-12-14T02:38:49.446Z,19.70
2022-12-14T02:41:26.853Z,18.23
2022-12-14T02:44:04.696Z,17.47
2022-12-14T02:46:50.039Z,20.27
2022-12-14T02:49:36.123Z,19.23
2022-12-14T02:52:12.618Z,18.77
2022-12-14T02:54:52.156Z,19.37
2022-12-14T02:57:24.586Z,31.93
2022-12-14T02:59:57.177Z,18.57
2022-12-14T03:02:29.805Z,20.07
2022-12-14T03:05:00.299Z,19.47
2022-12-14T03:07:38.093Z,20.20
2022-12-14T03:10:18.062Z,18.40
2022-12-14T03:12:52.147Z,18.00
2022-12-14T03:15:23.105Z,16.90
2022-12-14T03:17:57.197Z,18.80
2022-12-14T03:20:28.211Z,19.43
2022-12-14T03:23:00.605Z,15.50
2022-12-14T03:25:36.604Z,23.20
2022-12-14T03:28:10.604Z,15.10
2022-12-14T03:31:00.322Z,19.40
2022-12-14T03:33:33.914Z,16.43
2022-12-14T03:36:12.255Z,18.97
2022-12-14T03:38:43.540Z,20.10
2022-12-14T03:41:21.667Z,19.77
2022-12-14T03:44:11.680Z,15.10
2022-12-14T03:46:51.572Z,19.97
2022-12-14T03:49:27.426Z,19.73
2022-12-14T03:52:01.540Z,17.27
2022-12-14T03:54:41.802Z,18.57
2022-12-14T03:57:18.360Z,15.80
2022-12-14T03:59:56.000Z,18.10
2022-12-14T04:02:35.079Z,19.90
2022-12-14T04:05:17.089Z,15.07
2022-12-14T04:07:53.734Z,16.43
2022-12-14T04:10:43.514Z,14.37
2022-12-14T04:13:34.305Z,21.73
2022-12-14T04:16:25.588Z,17.77
2022-12-14T04:19:00.984Z,20.37
2022-12-14T04:21:38.720Z,20.43
2022-12-14T04:24:31.896Z,18.63
2022-12-14T04:27:06.769Z,19.83
2022-12-14T04:29:55.802Z,23.93
2022-12-14T04:32:30.517Z,21.33
2022-12-14T04:35:05.548Z,18.83
2022-12-14T04:37:38.450Z,19.17
2022-12-14T04:40:11.005Z,23.30
2022-12-14T04:42:46.496Z,19.83
2022-12-14T04:45:20.722Z,19.03
2022-12-14T04:47:57.865Z,15.67
2022-12-14T04:50:30.550Z,18.43
2022-12-14T04:53:05.154Z,17.47
2022-12-14T04:55:39.750Z,17.83
2022-12-14T04:58:14.218Z,17.60
2022-12-14T05:00:59.746Z,20.37
2022-12-14T05:03:32.350Z,21.80
2022-12-14T05:06:11.537Z,18.60
2022-12-14T05:09:11.220Z,22.00
2022-12-14T05:11:54.606Z,19.90
2022-12-14T05:14:34.121Z,22.17
2022-12-14T05:17:08.889Z,21.87
2022-12-14T05:19:39.167Z,18.57
2022-12-14T05:22:09.179Z,19.03
2022-12-14T05:24:39.346Z,19.43
2022-12-14T05:27:08.344Z,18.87
2022-12-14T05:29:43.686Z,18.13
2022-12-14T05:32:13.699Z,22.03
2022-12-14T05:34:42.483Z,16.20
2022-12-14T05:37:17.784Z,15.90
2022-12-14T05:40:17.916Z,17.03
2022-12-14T05:42:49.831Z,17.93
2022-12-14T05:45:22.772Z,17.20
2022-12-14T05:47:52.509Z,15.77
2022-12-14T05:50:21.274Z,19.40
2022-12-14T05:52:53.071Z,18.27
2022-12-14T05:55:23.456Z,14.33
2022-12-14T05:57:52.078Z,19.93
2022-12-14T06:00:22.000Z,15.80
2022-12-14T06:02:50.843Z,13.63
2022-12-14T06:05:19.632Z,15.07
2022-12-14T06:07:48.251Z,16.27
2022-12-14T06:10:18.948Z,18.70
2022-12-14T06:12:49.607Z,13.53
2022-12-14T06:15:18.538Z,14.37
2022-12-14T06:17:48.042Z,14.57
2022-12-14T06:20:17.210Z,14.17
2022-12-14T06:22:47.855Z,12.97
2022-12-14T06:25:17.201Z,19.27
2022-12-14T06:27:46.108Z,13.80
2022-12-14T06:30:17.339Z,17.67
2022-12-14T06:32:46.334Z,14.60
2022-12-14T06:35:15.533Z,15.13
2022-12-14T06:37:57.273Z,14.50
2022-12-14T06:40:26.141Z,19.37
2022-12-14T06:42:55.105Z,14.93
2022-12-14T06:45:25.636Z,14.07
2022-12-14T06:47:54.180Z,15.63
2022-12-14T06:50:23.230Z,16.70
2022-12-14T06:52:51.726Z,18.63
2022-12-14T06:55:20.702Z,14.97
2022-12-14T06:57:52.101Z,14.93
2022-12-14T07:00:21.747Z,17.47
2022-12-14T07:02:52.600Z,14.17
2022-12-14T07:05:21.870Z,15.23
2022-12-14T07:07:50.384Z,19.07
2022-12-14T07:10:19.412Z,13.23
2022-12-14T07:12:48.164Z,19.27
2022-12-14T07:15:17.603Z,15.23
2022-12-14T07:17:46.327Z,13.83
2022-12-14T07:20:16.968Z,23.80
2022-12-14T07:22:49.325Z,14.07
2022-12-14T07:25:18.591Z,14.43
2022-12-14T07:27:47.678Z,14.20
2022-12-14T07:30:16.550Z,14.87
2022-12-14T07:32:46.135Z,29.03
2022-12-14T07:35:17.057Z,21.07
2022-12-14T07:37:49.267Z,15.73
2022-12-14T07:40:18.691Z,19.97
2022-12-14T07:42:50.636Z,18.60
2022-12-14T07:45:21.034Z,16.93
2022-12-14T07:47:51.329Z,13.57
2022-12-14T07:50:21.649Z,18.40
2022-12-14T07:52:50.559Z,15.27
2022-12-14T07:55:21.781Z,19.27
2022-12-14T07:57:50.500Z,19.37
2022-12-14T08:00:19.794Z,14.53
2022-12-14T08:02:48.460Z,17.80
2022-12-14T08:05:17.264Z,21.40
2022-12-14T08:07:47.545Z,14.63
2022-12-14T08:10:16.189Z,14.63
2022-12-14T08:12:44.806Z,14.13
2022-12-14T08:15:13.984Z,17.00
2022-12-14T08:17:42.705Z,16.53
2022-12-14T08:20:21.304Z,18.77
2022-12-14T08:22:54.053Z,14.77
2022-12-14T08:25:22.721Z,16.60
2022-12-14T08:27:54.611Z,14.93
2022-12-14T08:30:25.944Z,14.97
2022-12-14T08:32:56.828Z,15.30
2022-12-14T08:35:25.524Z,15.53
2022-12-14T08:37:55.771Z,14.10
2022-12-14T08:40:24.879Z,16.33
2022-12-14T08:42:54.573Z,11.20
2022-12-14T08:45:23.363Z,16.30
2022-12-14T08:47:52.097Z,17.13
2022-12-14T08:50:23.066Z,19.10
2022-12-14T08:52:56.377Z,15.57
2022-12-14T08:55:29.132Z,13.40
2022-12-14T08:58:02.552Z,18.23
2022-12-14T09:00:32.118Z,16.07
2022-12-14T09:03:00.866Z,13.50
2022-12-14T09:05:29.359Z,13.97
2022-12-14T09:08:00.604Z,16.80
2022-12-14T09:10:29.374Z,14.50
2022-12-14T09:12:59.919Z,22.97
2022-12-14T09:15:29.541Z,16.87
2022-12-14T09:18:01.080Z,18.70
2022-12-14T09:20:30.299Z,14.23
2022-12-14T09:23:00.949Z,14.23
2022-12-14T09:25:30.386Z,11.80
2022-12-14T09:27:59.834Z,16.80
2022-12-14T09:30:29.090Z,15.40
2022-12-14T09:32:58.085Z,17.33
2022-12-14T09:35:27.626Z,17.00
2022-12-14T09:37:58.171Z,14.87
2022-12-14T09:40:31.799Z,21.67
2022-12-14T09:43:06.043Z,23.87
2022-12-14T09:45:42.415Z,18.57
2022-12-14T09:48:20.427Z,18.10
2022-12-14T09:50:51.037Z,22.57
2022-12-14T09:53:22.010Z,17.63
2022-12-14T09:55:55.303Z,18.00
2022-12-14T09:58:30.402Z,17.17
2022-12-14T10:05:03.124Z,24.27
2022-12-14T10:07:38.482Z,19.00
2022-12-14T10:10:19.066Z,20.43
2022-12-14T10:12:59.401Z,19.27
2022-12-14T10:15:33.638Z,18.40
2022-12-14T10:18:41.271Z,20.43
2022-12-14T10:21:14.591Z,21.77
2022-12-14T10:23:52.725Z,23.20
2022-12-14T10:26:24.689Z,19.17
2022-12-14T10:29:01.783Z,22.20
2022-12-14T10:31:37.846Z,19.87
2022-12-14T10:34:19.485Z,28.33
2022-12-14T10:37:12.275Z,19.87
2022-12-14T10:39:52.991Z,19.57
2022-12-14T10:42:31.568Z,19.07
2022-12-14T10:48:23.769Z,16.97
2022-12-14T10:50:59.339Z,25.97
2022-12-14T10:53:40.417Z,23.87
2022-12-14T10:56:16.712Z,22.97
2022-12-14T10:58:45.626Z,22.60
2022-12-14T11:01:17.197Z,22.57
2022-12-14T11:03:50.932Z,23.30
2022-12-14T11:06:22.138Z,20.10
2022-12-14T11:08:51.884Z,32.20
2022-12-14T11:11:24.740Z,27.43
2022-12-14T11:13:55.759Z,23.30
2022-12-14T11:16:37.353Z,22.63
2022-12-14T11:19:16.327Z,18.50
2022-12-14T11:21:45.618Z,31.00
2022-12-14T11:24:23.975Z,31.00
2022-12-14T11:26:59.153Z,27.77
2022-12-14T11:29:32.943Z,27.37
2022-12-14T11:32:04.905Z,27.67
2022-12-14T11:34:39.599Z,21.77
2022-12-14T11:37:16.749Z,25.50
2022-12-14T11:39:52.090Z,22.83
2022-12-14T11:42:22.635Z,24.83
2022-12-14T11:44:52.951Z,22.40
2022-12-14T11:47:26.791Z,29.90
2022-12-14T11:49:57.169Z,20.87
2022-12-14T11:52:42.378Z,20.27
2022-12-14T11:55:17.347Z,19.50
2022-12-14T11:57:54.567Z,17.27
2022-12-14T12:01:07.461Z,18.07
2022-12-14T12:03:43.500Z,18.57
2022-12-14T12:07:04.462Z,18.77
2022-12-14T12:12:54.428Z,18.60
2022-12-14T12:15:28.237Z,18.83
2022-12-14T12:18:03.141Z,20.03
2022-12-14T12:20:37.413Z,19.40
2022-12-14T12:23:14.669Z,22.00
2022-12-14T12:25:46.230Z,19.07
2022-12-14T12:28:21.205Z,22.93
2022-12-14T12:30:55.561Z,25.60
2022-12-14T12:33:33.485Z,18.77
2022-12-14T12:36:09.222Z,20.37
2022-12-14T12:38:57.421Z,18.97
2022-12-14T12:41:33.758Z,21.20
2022-12-14T12:44:23.327Z,23.20
2022-12-14T12:47:38.218Z,18.80
2022-12-14T12:50:32.473Z,18.67
2022-12-14T12:53:07.296Z,18.40
2022-12-14T12:55:43.495Z,18.53
2022-12-14T12:58:20.369Z,22.57
2022-12-14T13:00:51.735Z,24.90
2022-12-14T13:03:26.381Z,22.97
2022-12-14T13:05:58.588Z,22.87
2022-12-14T13:08:35.620Z,27.70
2022-12-14T13:11:29.540Z,20.00
2022-12-14T13:14:03.723Z,20.97
2022-12-14T13:16:36.055Z,17.87
2022-12-14T13:19:48.706Z,15.43
2022-12-14T13:22:10.905Z,18.20
2022-12-14T13:24:47.492Z,18.60
2022-12-14T13:27:40.760Z,19.77
2022-12-14T13:30:22.311Z,15.67
2022-12-14T13:33:04.665Z,19.80
2022-12-14T13:35:48.174Z,20.67
2022-12-14T13:38:47.787Z,17.43
2022-12-14T13:41:29.144Z,13.43
2022-12-14T13:44:33.544Z,16.13
2022-12-14T13:47:14.179Z,15.60
2022-12-14T13:49:43.450Z,15.70
2022-12-14T13:52:30.696Z,17.50
2022-12-14T13:55:00.754Z,14.83
2022-12-14T13:57:30.980Z,18.57
2022-12-14T14:00:00.604Z,15.77
2022-12-14T14:02:41.642Z,25.67
2022-12-14T14:05:45.740Z,24.47
2022-12-14T14:08:39.317Z,21.23
2022-12-14T14:11:57.321Z,21.83
2022-12-14T14:14:47.190Z,32.03
2022-12-14T14:17:25.135Z,24.13
2022-12-14T14:19:56.342Z,30.17
2022-12-14T14:22:27.389Z,27.67
2022-12-14T14:25:02.073Z,26.43
2022-12-14T14:27:38.922Z,19.93
2022-12-14T14:30:36.762Z,22.30
2022-12-14T14:33:44.746Z,24.17
2022-12-14T14:36:26.265Z,20.17
2022-12-14T14:38:56.881Z,20.57
2022-12-14T14:41:29.466Z,18.77
2022-12-14T14:44:01.519Z,18.77
2022-12-14T14:46:39.688Z,16.17
2022-12-14T14:49:23.474Z,13.27
2022-12-14T14:51:52.353Z,19.87
2022-12-14T14:57:36.610Z,16.57
2022-12-14T15:00:08.003Z,16.07
2022-12-14T15:02:42.913Z,20.43
2022-12-14T15:08:19.066Z,18.73
2022-12-14T15:10:49.107Z,23.93
2022-12-14T15:13:22.237Z,20.57
2022-12-14T15:15:56.795Z,20.47
2022-12-14T15:18:30.509Z,18.63
2022-12-14T15:21:03.448Z,22.67
2022-12-14T15:23:38.182Z,17.53
2022-12-14T15:26:16.991Z,15.30
2022-12-14T15:28:50.200Z,21.33
2022-12-14T15:31:30.235Z,14.63
2022-12-14T15:34:01.620Z,14.73
2022-12-14T15:36:33.236Z,16.77
2022-12-14T15:39:02.136Z,21.13
2022-12-14T15:41:34.398Z,17.00
2022-12-14T15:44:03.601Z,16.73
2022-12-14T15:46:34.495Z,19.23
2022-12-14T15:49:08.345Z,19.43
2022-12-14T15:51:39.685Z,17.27
2022-12-14T15:54:16.509Z,19.97
2022-12-14T15:56:47.932Z,17.43
2022-12-14T15:59:19.167Z,20.37
2022-12-14T16:01:55.160Z,17.53
2022-12-14T16:04:29.369Z,26.33
2022-12-14T16:07:08.676Z,20.07
2022-12-14T16:09:43.499Z,27.50
2022-12-14T16:12:18.939Z,25.73
2022-12-14T16:14:54.460Z,18.73
2022-12-14T16:17:27.987Z,18.83
2022-12-14T16:20:01.250Z,18.60
2022-12-14T16:22:32.145Z,21.03
2022-12-14T16:25:20.514Z,22.57
2022-12-14T16:27:52.309Z,19.50
2022-12-14T16:30:30.846Z,21.70
2022-12-14T16:33:11.494Z,18.97
2022-12-14T16:35:41.491Z,21.20
2022-12-14T16:38:14.356Z,18.73
2022-12-14T16:40:45.379Z,21.33
2022-12-14T16:43:31.113Z,23.40
2022-12-14T16:46:21.257Z,17.17
2022-12-14T16:49:23.902Z,21.07
2022-12-14T16:52:09.624Z,20.67
2022-12-14T16:54:40.171Z,16.60
2022-12-14T16:57:20.012Z,17.90
2022-12-14T16:59:56.573Z,23.57
2022-12-14T17:02:31.897Z,22.40
2022-12-14T17:05:02.835Z,23.67
2022-12-14T17:07:36.394Z,22.87
2022-12-14T17:10:05.843Z,22.17
2022-12-14T17:12:34.767Z,22.23
2022-12-14T17:15:03.436Z,26.80
2022-12-14T17:17:34.978Z,26.90
2022-12-14T17:20:14.283Z,24.43
2022-12-14T17:22:49.450Z,23.77
2022-12-14T17:25:19.389Z,26.23
2022-12-14T17:27:49.433Z,24.00
2022-12-14T17:30:21.893Z,20.43
2022-12-14T17:32:51.854Z,26.20
2022-12-14T17:35:23.024Z,19.77
2022-12-14T17:37:53.864Z,25.87
2022-12-14T17:40:22.985Z,21.20
2022-12-14T17:42:55.149Z,23.23
2022-12-14T17:45:26.519Z,26.80
2022-12-14T17:47:55.738Z,23.83
2022-12-14T17:50:25.088Z,24.67
2022-12-14T17:53:00.728Z,26.23
2022-12-14T17:55:31.141Z,24.80
2022-12-14T17:57:59.931Z,24.80
2022-12-14T18:00:48.843Z,23.13
2022-12-14T18:03:19.267Z,24.37
2022-12-14T18:05:50.487Z,25.90
2022-12-14T18:08:22.279Z,22.63
2022-12-14T18:10:54.086Z,26.30
2022-12-14T18:13:22.680Z,21.77
2022-12-14T18:15:53.176Z,25.00
2022-12-14T18:18:25.776Z,34.83
2022-12-14T18:21:01.579Z,25.00
2022-12-14T18:23:33.403Z,27.57
2022-12-14T18:26:05.391Z,26.63
2022-12-14T18:28:34.508Z,30.73
2022-12-14T18:31:06.598Z,29.87
2022-12-14T18:33:36.182Z,27.97
2022-12-14T18:36:04.986Z,25.40
2022-12-14T18:38:35.333Z,21.80
2022-12-14T18:41:04.373Z,30.00
2022-12-14T18:43:35.652Z,25.73
2022-12-14T18:46:06.492Z,26.10
2022-12-14T18:48:35.821Z,23.67
2022-12-14T18:51:06.295Z,26.07
2022-12-14T18:53:36.528Z,29.00
2022-12-14T18:56:09.609Z,27.80
2022-12-14T18:58:41.991Z,26.13
2022-12-14T19:01:16.410Z,26.63
2022-12-14T19:03:45.399Z,32.83
2022-12-14T19:09:06.201Z,32.10
2022-12-14T19:11:39.179Z,24.67
2022-12-14T19:14:07.831Z,22.43
2022-12-14T19:16:36.717Z,26.83
2022-12-14T19:19:05.793Z,30.63
2022-12-14T19:21:34.491Z,26.60
2022-12-14T19:24:03.152Z,27.40
2022-12-14T19:26:33.270Z,31.97
2022-12-14T19:29:02.050Z,29.37
2022-12-14T19:31:30.943Z,25.50
2022-12-14T19:33:59.827Z,26.83
2022-12-14T19:36:28.459Z,27.27
2022-12-14T19:38:57.203Z,28.40
2022-12-14T19:41:26.818Z,28.43
2022-12-14T19:43:58.597Z,28.83
2022-12-14T19:46:27.177Z,33.23
2022-12-14T19:48:57.617Z,28.00
2022-12-14T19:51:26.439Z,27.20
2022-12-14T19:53:56.524Z,27.53
2022-12-14T19:56:25.306Z,30.73
2022-12-14T19:59:00.940Z,29.70
2022-12-14T20:01:35.252Z,31.30
2022-12-14T20:04:05.203Z,31.60
2022-12-14T20:06:34.767Z,30.60
2022-12-14T20:09:05.928Z,29.50
2022-12-14T20:11:35.142Z,33.20
2022-12-14T20:14:03.980Z,27.80
2022-12-14T20:16:34.772Z,25.80
2022-12-14T20:19:04.495Z,26.67
2022-12-14T20:21:34.332Z,28.70
2022-12-14T20:24:03.255Z,29.83
2022-12-14T20:26:32.162Z,27.13
2022-12-14T20:29:05.102Z,31.30
2022-12-14T20:31:36.030Z,34.63
2022-12-14T20:34:06.703Z,27.40
2022-12-14T20:36:35.369Z,28.67
2022-12-14T20:39:05.563Z,32.87
2022-12-14T20:41:35.338Z,30.93
2022-12-14T20:44:04.122Z,29.07
2022-12-14T20:46:36.093Z,34.03
2022-12-14T20:49:07.177Z,31.03
2022-12-14T20:51:37.987Z,25.87
2022-12-14T20:54:08.488Z,30.83
2022-12-14T20:56:37.750Z,30.93
2022-12-14T20:59:07.427Z,28.00
2022-12-14T21:01:39.046Z,32.80
2022-12-14T21:04:08.977Z,29.20
2022-12-14T21:06:40.043Z,31.77
2022-12-14T21:09:12.831Z,31.30
2022-12-14T21:12:01.619Z,29.03
2022-12-14T21:14:32.775Z,38.57
2022-12-14T21:17:04.289Z,34.87
2022-12-14T21:19:36.100Z,32.40
2022-12-14T21:22:07.416Z,38.10
2022-12-14T21:27:30.400Z,31.27
2022-12-14T21:30:00.234Z,29.20
2022-12-14T21:32:31.027Z,27.80
2022-12-14T21:35:01.830Z,31.60
2022-12-14T21:37:30.662Z,30.60
2022-12-14T21:40:00.308Z,34.40
2022-12-14T21:42:28.867Z,33.67
2022-12-14T21:44:58.053Z,33.07
2022-12-14T21:47:29.447Z,29.80
2022-12-14T21:49:59.809Z,35.90
2022-12-14T21:52:29.817Z,27.33
2022-12-14T21:55:04.540Z,32.57
2022-12-14T21:57:50.920Z,26.40
2022-12-14T22:00:20.842Z,34.27
2022-12-14T22:02:50.159Z,30.90
2022-12-14T22:05:20.302Z,27.57
2022-12-14T22:07:49.234Z,28.67
2022-12-14T22:10:22.989Z,29.67
2022-12-14T22:12:53.341Z,32.30
2022-12-14T22:15:22.257Z,34.13
2022-12-14T22:17:51.910Z,32.13
2022-12-14T22:20:21.990Z,85.93
2022-12-14T22:22:50.706Z,62.87
2022-12-14T22:25:19.502Z,50.80
2022-12-14T22:27:50.049Z,31.77
2022-12-14T22:30:19.659Z,45.57
2022-12-14T22:32:48.279Z,48.33
2022-12-14T22:35:18.421Z,51.27
2022-12-14T22:37:48.442Z,45.43
2022-12-14T22:40:17.009Z,47.87
2022-12-14T22:42:45.724Z,41.23
2022-12-14T22:45:14.331Z,45.03
2022-12-14T22:47:44.541Z,44.03
2022-12-14T22:50:13.678Z,48.90
2022-12-14T22:52:42.338Z,40.37
2022-12-14T22:55:12.864Z,40.90
2022-12-14T22:57:45.920Z,40.53
2022-12-14T23:00:17.393Z,42.70
2022-12-14T23:02:48.587Z,46.43
2022-12-14T23:05:18.746Z,39.27
2022-12-14T23:07:47.642Z,30.17
2022-12-14T23:10:35.640Z,40.60
2022-12-14T23:13:21.689Z,36.47
2022-12-14T23:16:08.230Z,37.00
2022-12-14T23:18:54.470Z,38.43
2022-12-14T23:21:40.333Z,38.17
2022-12-14T23:24:27.051Z,35.03
2022-12-14T23:27:14.465Z,39.00
2022-12-14T23:30:00.440Z,31.57
2022-12-14T23:32:46.646Z,46.23
2022-12-14T23:35:33.322Z,40.80
2022-12-14T23:38:22.683Z,39.47
2022-12-14T23:41:09.062Z,35.83
2022-12-14T23:43:56.564Z,35.80
2022-12-14T23:46:42.688Z,38.20
2022-12-14T23:49:28.915Z,33.27
2022-12-14T23:52:15.258Z,38.63
2022-12-14T23:55:01.458Z,29.33
2022-12-14T23:57:47.687Z,34.43
